sensor_id;sensor_type;location;lat;lon;timestamp;P1;durP1;ratioP1;P2;durP2;ratioP2
4450;SDS011;2238;50.180;9.230;2023-04-04T00:02:34;5.80;;;4.83;;
4450;SDS011;2238;50.180;9.230;2023-04-04T00:05:35;4.73;;;4.43;;
4450;SDS011;2238;50.180;9.230;2023-04-04T00:08:35;5.20;;;4.90;;
4450;SDS011;2238;50.180;9.230;2023-04-04T00:11:36;5.40;;;5.03;;
4450;SDS011;2238;50.180;9.230;2023-04-04T00:14:37;6.07;;;5.30;;
4450;SDS011;2238;50.180;9.230;2023-04-04T00:17:38;5.20;;;4.90;;
4450;SDS011;2238;50.180;9.230;2023-04-04T00:20:38;6.20;;;5.63;;
4450;SDS011;2238;50.180;9.230;2023-04-04T00:23:39;11.13;;;5.60;;
4450;SDS011;2238;50.180;9.230;2023-04-04T00:26:39;6.30;;;5.67;;
4450;SDS011;2238;50.180;9.230;2023-04-04T00:29:40;8.90;;;5.17;;
4450;SDS011;2238;50.180;9.230;2023-04-04T00:32:41;6.10;;;5.70;;
4450;SDS011;2238;50.180;9.230;2023-04-04T00:35:41;5.43;;;5.03;;
4450;SDS011;2238;50.180;9.230;2023-04-04T00:38:42;5.80;;;5.30;;
4450;SDS011;2238;50.180;9.230;2023-04-04T00:41:42;5.90;;;5.40;;
4450;SDS011;2238;50.180;9.230;2023-04-04T00:44:43;6.47;;;5.17;;
4450;SDS011;2238;50.180;9.230;2023-04-04T00:47:44;4.73;;;4.43;;
4450;SDS011;2238;50.180;9.230;2023-04-04T00:50:45;5.20;;;4.80;;
4450;SDS011;2238;50.180;9.230;2023-04-04T00:53:46;5.87;;;5.40;;
4450;SDS011;2238;50.180;9.230;2023-04-04T00:56:47;5.00;;;4.70;;
4450;SDS011;2238;50.180;9.230;2023-04-04T00:59:55;5.20;;;4.80;;
4450;SDS011;2238;50.180;9.230;2023-04-04T01:02:56;4.97;;;4.57;;
4450;SDS011;2238;50.180;9.230;2023-04-04T01:05:57;4.77;;;4.50;;
4450;SDS011;2238;50.180;9.230;2023-04-04T01:08:58;5.93;;;5.53;;
4450;SDS011;2238;50.180;9.230;2023-04-04T01:11:59;5.10;;;4.60;;
4450;SDS011;2238;50.180;9.230;2023-04-04T01:15:00;5.47;;;5.07;;
4450;SDS011;2238;50.180;9.230;2023-04-04T01:18:00;6.30;;;5.17;;
4450;SDS011;2238;50.180;9.230;2023-04-04T01:21:10;4.63;;;4.27;;
4450;SDS011;2238;50.180;9.230;2023-04-04T01:24:12;5.07;;;4.77;;
4450;SDS011;2238;50.180;9.230;2023-04-04T01:27:15;7.93;;;4.60;;
4450;SDS011;2238;50.180;9.230;2023-04-04T01:30:16;5.30;;;4.90;;
4450;SDS011;2238;50.180;9.230;2023-04-04T01:33:18;6.40;;;4.40;;
4450;SDS011;2238;50.180;9.230;2023-04-04T01:36:26;5.40;;;4.30;;
4450;SDS011;2238;50.180;9.230;2023-04-04T01:39:40;5.23;;;4.83;;
4450;SDS011;2238;50.180;9.230;2023-04-04T01:42:47;4.97;;;4.67;;
4450;SDS011;2238;50.180;9.230;2023-04-04T01:45:48;4.70;;;4.40;;
4450;SDS011;2238;50.180;9.230;2023-04-04T01:48:49;5.80;;;5.17;;
4450;SDS011;2238;50.180;9.230;2023-04-04T01:51:50;5.13;;;4.70;;
4450;SDS011;2238;50.180;9.230;2023-04-04T01:54:52;5.27;;;4.87;;
4450;SDS011;2238;50.180;9.230;2023-04-04T01:57:52;5.13;;;4.73;;
4450;SDS011;2238;50.180;9.230;2023-04-04T02:00:53;5.70;;;4.83;;
4450;SDS011;2238;50.180;9.230;2023-04-04T02:03:53;5.43;;;4.77;;
4450;SDS011;2238;50.180;9.230;2023-04-04T02:06:54;5.10;;;4.77;;
4450;SDS011;2238;50.180;9.230;2023-04-04T02:09:56;4.87;;;4.47;;
4450;SDS011;2238;50.180;9.230;2023-04-04T02:12:56;5.20;;;4.90;;
4450;SDS011;2238;50.180;9.230;2023-04-04T02:15:57;5.00;;;4.60;;
4450;SDS011;2238;50.180;9.230;2023-04-04T02:18:58;4.67;;;4.23;;
4450;SDS011;2238;50.180;9.230;2023-04-04T02:21:59;5.20;;;4.80;;
4450;SDS011;2238;50.180;9.230;2023-04-04T02:25:00;4.30;;;4.00;;
4450;SDS011;2238;50.180;9.230;2023-04-04T02:28:01;4.57;;;4.27;;
4450;SDS011;2238;50.180;9.230;2023-04-04T02:31:02;4.47;;;4.20;;
4450;SDS011;2238;50.180;9.230;2023-04-04T02:34:02;4.50;;;4.20;;
4450;SDS011;2238;50.180;9.230;2023-04-04T02:37:03;4.80;;;4.40;;
4450;SDS011;2238;50.180;9.230;2023-04-04T02:40:04;5.03;;;4.63;;
4450;SDS011;2238;50.180;9.230;2023-04-04T02:43:05;4.83;;;4.53;;
4450;SDS011;2238;50.180;9.230;2023-04-04T02:46:06;4.17;;;3.93;;
4450;SDS011;2238;50.180;9.230;2023-04-04T02:49:06;5.20;;;4.80;;
4450;SDS011;2238;50.180;9.230;2023-04-04T02:52:07;4.67;;;4.27;;
4450;SDS011;2238;50.180;9.230;2023-04-04T02:55:08;5.40;;;5.10;;
4450;SDS011;2238;50.180;9.230;2023-04-04T02:58:08;4.60;;;4.30;;
4450;SDS011;2238;50.180;9.230;2023-04-04T03:01:09;3.90;;;3.70;;
4450;SDS011;2238;50.180;9.230;2023-04-04T03:04:09;4.70;;;4.33;;
4450;SDS011;2238;50.180;9.230;2023-04-04T03:07:10;4.40;;;4.00;;
4450;SDS011;2238;50.180;9.230;2023-04-04T03:10:11;4.70;;;4.40;;
4450;SDS011;2238;50.180;9.230;2023-04-04T03:13:12;4.70;;;4.30;;
4450;SDS011;2238;50.180;9.230;2023-04-04T03:16:12;4.63;;;4.33;;
4450;SDS011;2238;50.180;9.230;2023-04-04T03:19:15;4.60;;;4.30;;
4450;SDS011;2238;50.180;9.230;2023-04-04T03:22:16;6.03;;;4.40;;
4450;SDS011;2238;50.180;9.230;2023-04-04T03:25:17;4.77;;;4.47;;
4450;SDS011;2238;50.180;9.230;2023-04-04T03:28:18;6.50;;;4.87;;
4450;SDS011;2238;50.180;9.230;2023-04-04T03:31:18;4.83;;;4.50;;
4450;SDS011;2238;50.180;9.230;2023-04-04T03:34:19;4.30;;;4.10;;
4450;SDS011;2238;50.180;9.230;2023-04-04T03:37:19;4.70;;;4.40;;
4450;SDS011;2238;50.180;9.230;2023-04-04T03:40:21;4.67;;;4.37;;
4450;SDS011;2238;50.180;9.230;2023-04-04T03:43:21;4.93;;;4.63;;
4450;SDS011;2238;50.180;9.230;2023-04-04T03:46:22;5.07;;;4.70;;
4450;SDS011;2238;50.180;9.230;2023-04-04T03:49:23;5.10;;;4.70;;
4450;SDS011;2238;50.180;9.230;2023-04-04T03:52:24;5.63;;;5.23;;
4450;SDS011;2238;50.180;9.230;2023-04-04T03:55:24;5.33;;;5.00;;
4450;SDS011;2238;50.180;9.230;2023-04-04T03:58:25;4.47;;;4.20;;
4450;SDS011;2238;50.180;9.230;2023-04-04T04:01:27;5.87;;;5.47;;
4450;SDS011;2238;50.180;9.230;2023-04-04T04:04:28;4.97;;;4.57;;
4450;SDS011;2238;50.180;9.230;2023-04-04T04:07:28;7.80;;;5.27;;
4450;SDS011;2238;50.180;9.230;2023-04-04T04:10:30;5.80;;;5.30;;
4450;SDS011;2238;50.180;9.230;2023-04-04T04:13:31;5.30;;;4.70;;
4450;SDS011;2238;50.180;9.230;2023-04-04T04:16:32;5.70;;;5.23;;
4450;SDS011;2238;50.180;9.230;2023-04-04T04:37:54;4.13;;;3.83;;
4450;SDS011;2238;50.180;9.230;2023-04-04T04:40:55;4.43;;;4.03;;
4450;SDS011;2238;50.180;9.230;2023-04-04T04:43:56;4.30;;;4.00;;
4450;SDS011;2238;50.180;9.230;2023-04-04T04:46:56;3.73;;;3.53;;
4450;SDS011;2238;50.180;9.230;2023-04-04T04:49:57;5.23;;;4.83;;
4450;SDS011;2238;50.180;9.230;2023-04-04T04:52:58;4.27;;;3.97;;
4450;SDS011;2238;50.180;9.230;2023-04-04T04:55:58;4.43;;;4.13;;
4450;SDS011;2238;50.180;9.230;2023-04-04T04:58:59;4.63;;;4.43;;
4450;SDS011;2238;50.180;9.230;2023-04-04T05:02:00;3.93;;;3.70;;
4450;SDS011;2238;50.180;9.230;2023-04-04T05:05:00;5.00;;;4.50;;
4450;SDS011;2238;50.180;9.230;2023-04-04T05:08:01;4.60;;;4.03;;
4450;SDS011;2238;50.180;9.230;2023-04-04T05:11:01;5.23;;;4.63;;
4450;SDS011;2238;50.180;9.230;2023-04-04T05:14:02;6.90;;;4.13;;
4450;SDS011;2238;50.180;9.230;2023-04-04T05:17:03;3.80;;;3.63;;
4450;SDS011;2238;50.180;9.230;2023-04-04T05:20:04;4.27;;;3.93;;
4450;SDS011;2238;50.180;9.230;2023-04-04T05:23:05;4.97;;;4.67;;
4450;SDS011;2238;50.180;9.230;2023-04-04T05:26:05;4.77;;;4.37;;
4450;SDS011;2238;50.180;9.230;2023-04-04T05:29:06;4.70;;;4.30;;
4450;SDS011;2238;50.180;9.230;2023-04-04T05:32:07;5.00;;;4.60;;
4450;SDS011;2238;50.180;9.230;2023-04-04T05:35:08;4.73;;;4.33;;
4450;SDS011;2238;50.180;9.230;2023-04-04T05:38:08;8.87;;;7.97;;
4450;SDS011;2238;50.180;9.230;2023-04-04T05:41:09;8.43;;;7.57;;
4450;SDS011;2238;50.180;9.230;2023-04-04T05:44:09;13.77;;;12.27;;
4450;SDS011;2238;50.180;9.230;2023-04-04T05:47:10;7.80;;;7.10;;
4450;SDS011;2238;50.180;9.230;2023-04-04T05:50:11;16.13;;;14.50;;
4450;SDS011;2238;50.180;9.230;2023-04-04T05:53:11;10.20;;;9.30;;
4450;SDS011;2238;50.180;9.230;2023-04-04T05:56:12;7.60;;;6.93;;
4450;SDS011;2238;50.180;9.230;2023-04-04T05:59:13;8.30;;;7.70;;
4450;SDS011;2238;50.180;9.230;2023-04-04T06:02:13;23.77;;;16.53;;
4450;SDS011;2238;50.180;9.230;2023-04-04T06:05:14;26.83;;;19.70;;
4450;SDS011;2238;50.180;9.230;2023-04-04T06:08:15;11.70;;;10.50;;
4450;SDS011;2238;50.180;9.230;2023-04-04T06:11:15;18.43;;;14.17;;
4450;SDS011;2238;50.180;9.230;2023-04-04T06:14:16;5.97;;;5.47;;
4450;SDS011;2238;50.180;9.230;2023-04-04T06:17:16;5.33;;;4.93;;
4450;SDS011;2238;50.180;9.230;2023-04-04T06:20:17;4.93;;;4.53;;
4450;SDS011;2238;50.180;9.230;2023-04-04T06:23:23;5.77;;;5.37;;
4450;SDS011;2238;50.180;9.230;2023-04-04T06:26:23;5.00;;;4.60;;
4450;SDS011;2238;50.180;9.230;2023-04-04T06:29:25;6.00;;;5.03;;
4450;SDS011;2238;50.180;9.230;2023-04-04T06:32:26;5.17;;;4.77;;
4450;SDS011;2238;50.180;9.230;2023-04-04T06:35:27;8.53;;;6.40;;
4450;SDS011;2238;50.180;9.230;2023-04-04T06:38:27;5.10;;;4.63;;
4450;SDS011;2238;50.180;9.230;2023-04-04T06:41:28;5.10;;;4.60;;
4450;SDS011;2238;50.180;9.230;2023-04-04T06:44:29;10.27;;;9.27;;
4450;SDS011;2238;50.180;9.230;2023-04-04T06:47:30;4.80;;;4.50;;
4450;SDS011;2238;50.180;9.230;2023-04-04T06:50:31;4.70;;;4.30;;
4450;SDS011;2238;50.180;9.230;2023-04-04T06:53:32;4.10;;;3.80;;
4450;SDS011;2238;50.180;9.230;2023-04-04T06:56:33;5.40;;;5.00;;
4450;SDS011;2238;50.180;9.230;2023-04-04T06:59:33;5.37;;;4.87;;
4450;SDS011;2238;50.180;9.230;2023-04-04T07:02:34;4.63;;;4.33;;
4450;SDS011;2238;50.180;9.230;2023-04-04T07:05:36;8.30;;;7.50;;
4450;SDS011;2238;50.180;9.230;2023-04-04T07:08:38;4.93;;;4.50;;
4450;SDS011;2238;50.180;9.230;2023-04-04T07:11:39;4.00;;;3.70;;
4450;SDS011;2238;50.180;9.230;2023-04-04T07:14:40;6.80;;;6.10;;
4450;SDS011;2238;50.180;9.230;2023-04-04T07:17:41;3.70;;;3.40;;
4450;SDS011;2238;50.180;9.230;2023-04-04T07:20:44;5.37;;;4.83;;
4450;SDS011;2238;50.180;9.230;2023-04-04T07:23:45;4.23;;;3.80;;
4450;SDS011;2238;50.180;9.230;2023-04-04T07:26:46;10.37;;;7.67;;
4450;SDS011;2238;50.180;9.230;2023-04-04T07:29:46;12.43;;;10.70;;
4450;SDS011;2238;50.180;9.230;2023-04-04T07:32:47;4.37;;;3.97;;
4450;SDS011;2238;50.180;9.230;2023-04-04T07:35:55;4.73;;;4.40;;
4450;SDS011;2238;50.180;9.230;2023-04-04T07:38:55;4.33;;;4.03;;
4450;SDS011;2238;50.180;9.230;2023-04-04T07:41:56;4.23;;;3.93;;
4450;SDS011;2238;50.180;9.230;2023-04-04T07:44:57;4.10;;;3.80;;
4450;SDS011;2238;50.180;9.230;2023-04-04T07:47:58;4.17;;;3.87;;
4450;SDS011;2238;50.180;9.230;2023-04-04T07:51:01;7.27;;;3.83;;
4450;SDS011;2238;50.180;9.230;2023-04-04T07:54:03;6.67;;;3.93;;
4450;SDS011;2238;50.180;9.230;2023-04-04T07:57:04;4.07;;;3.70;;
4450;SDS011;2238;50.180;9.230;2023-04-04T08:00:05;3.93;;;3.73;;
4450;SDS011;2238;50.180;9.230;2023-04-04T08:03:08;4.43;;;4.10;;
4450;SDS011;2238;50.180;9.230;2023-04-04T08:06:09;5.20;;;4.77;;
4450;SDS011;2238;50.180;9.230;2023-04-04T08:09:10;4.43;;;4.07;;
4450;SDS011;2238;50.180;9.230;2023-04-04T08:12:10;4.30;;;4.00;;
4450;SDS011;2238;50.180;9.230;2023-04-04T08:15:11;4.07;;;3.77;;
4450;SDS011;2238;50.180;9.230;2023-04-04T08:18:12;4.07;;;3.77;;
4450;SDS011;2238;50.180;9.230;2023-04-04T08:21:12;3.90;;;3.60;;
4450;SDS011;2238;50.180;9.230;2023-04-04T08:24:13;4.50;;;4.10;;
4450;SDS011;2238;50.180;9.230;2023-04-04T08:27:13;3.50;;;3.30;;
4450;SDS011;2238;50.180;9.230;2023-04-04T08:30:14;4.00;;;3.70;;
4450;SDS011;2238;50.180;9.230;2023-04-04T08:33:15;4.20;;;3.90;;
4450;SDS011;2238;50.180;9.230;2023-04-04T08:36:16;6.73;;;6.03;;
4450;SDS011;2238;50.180;9.230;2023-04-04T08:39:17;4.07;;;3.70;;
4450;SDS011;2238;50.180;9.230;2023-04-04T08:42:18;3.97;;;3.67;;
4450;SDS011;2238;50.180;9.230;2023-04-04T08:45:19;7.07;;;6.37;;
4450;SDS011;2238;50.180;9.230;2023-04-04T08:48:21;4.27;;;3.87;;
4450;SDS011;2238;50.180;9.230;2023-04-04T08:51:25;4.70;;;4.30;;
4450;SDS011;2238;50.180;9.230;2023-04-04T08:54:30;3.67;;;3.40;;
4450;SDS011;2238;50.180;9.230;2023-04-04T08:57:34;4.90;;;4.40;;
4450;SDS011;2238;50.180;9.230;2023-04-04T09:00:35;3.80;;;3.50;;
4450;SDS011;2238;50.180;9.230;2023-04-04T09:03:39;3.80;;;3.60;;
4450;SDS011;2238;50.180;9.230;2023-04-04T09:06:41;4.93;;;4.50;;
4450;SDS011;2238;50.180;9.230;2023-04-04T09:09:45;4.67;;;4.27;;
4450;SDS011;2238;50.180;9.230;2023-04-04T09:12:46;4.53;;;4.23;;
4450;SDS011;2238;50.180;9.230;2023-04-04T09:15:51;5.87;;;5.37;;
4450;SDS011;2238;50.180;9.230;2023-04-04T09:18:56;5.10;;;4.60;;
4450;SDS011;2238;50.180;9.230;2023-04-04T09:21:56;4.17;;;3.77;;
4450;SDS011;2238;50.180;9.230;2023-04-04T09:24:57;4.67;;;4.30;;
4450;SDS011;2238;50.180;9.230;2023-04-04T09:27:57;4.83;;;4.43;;
4450;SDS011;2238;50.180;9.230;2023-04-04T09:31:02;4.30;;;4.00;;
4450;SDS011;2238;50.180;9.230;2023-04-04T09:34:05;4.50;;;4.20;;
4450;SDS011;2238;50.180;9.230;2023-04-04T09:37:06;4.10;;;3.80;;
4450;SDS011;2238;50.180;9.230;2023-04-04T09:40:08;4.40;;;4.10;;
4450;SDS011;2238;50.180;9.230;2023-04-04T09:43:09;4.57;;;4.17;;
4450;SDS011;2238;50.180;9.230;2023-04-04T09:46:11;4.73;;;4.33;;
4450;SDS011;2238;50.180;9.230;2023-04-04T09:49:19;4.10;;;3.80;;
4450;SDS011;2238;50.180;9.230;2023-04-04T09:52:20;6.73;;;4.67;;
4450;SDS011;2238;50.180;9.230;2023-04-04T09:55:21;4.87;;;4.40;;
4450;SDS011;2238;50.180;9.230;2023-04-04T09:58:34;5.60;;;5.20;;
4450;SDS011;2238;50.180;9.230;2023-04-04T10:01:37;5.13;;;4.37;;
4450;SDS011;2238;50.180;9.230;2023-04-04T10:04:38;4.90;;;4.50;;
4450;SDS011;2238;50.180;9.230;2023-04-04T10:07:39;4.07;;;3.77;;
4450;SDS011;2238;50.180;9.230;2023-04-04T10:10:51;6.80;;;4.60;;
4450;SDS011;2238;50.180;9.230;2023-04-04T10:14:05;4.63;;;4.20;;
4450;SDS011;2238;50.180;9.230;2023-04-04T10:17:08;4.47;;;4.07;;
4450;SDS011;2238;50.180;9.230;2023-04-04T10:20:09;4.50;;;4.10;;
4450;SDS011;2238;50.180;9.230;2023-04-04T10:23:10;4.33;;;4.03;;
4450;SDS011;2238;50.180;9.230;2023-04-04T10:26:13;4.70;;;4.47;;
4450;SDS011;2238;50.180;9.230;2023-04-04T10:29:14;4.83;;;4.53;;
4450;SDS011;2238;50.180;9.230;2023-04-04T10:32:22;5.47;;;4.97;;
4450;SDS011;2238;50.180;9.230;2023-04-04T10:35:29;5.33;;;4.83;;
4450;SDS011;2238;50.180;9.230;2023-04-04T10:38:32;4.27;;;3.87;;
4450;SDS011;2238;50.180;9.230;2023-04-04T10:41:39;4.83;;;4.50;;
4450;SDS011;2238;50.180;9.230;2023-04-04T10:44:41;7.10;;;4.70;;
4450;SDS011;2238;50.180;9.230;2023-04-04T10:47:44;4.67;;;4.37;;
4450;SDS011;2238;50.180;9.230;2023-04-04T10:50:45;4.30;;;4.00;;
4450;SDS011;2238;50.180;9.230;2023-04-04T10:53:47;4.77;;;4.47;;
4450;SDS011;2238;50.180;9.230;2023-04-04T10:56:49;8.40;;;4.80;;
4450;SDS011;2238;50.180;9.230;2023-04-04T11:03:07;4.73;;;4.43;;
4450;SDS011;2238;50.180;9.230;2023-04-04T11:06:13;4.90;;;4.53;;
4450;SDS011;2238;50.180;9.230;2023-04-04T11:09:13;4.10;;;3.90;;
4450;SDS011;2238;50.180;9.230;2023-04-04T11:12:14;4.60;;;4.20;;
4450;SDS011;2238;50.180;9.230;2023-04-04T11:15:23;4.73;;;4.33;;
4450;SDS011;2238;50.180;9.230;2023-04-04T11:21:31;4.47;;;4.17;;
4450;SDS011;2238;50.180;9.230;2023-04-04T11:24:35;4.70;;;4.30;;
4450;SDS011;2238;50.180;9.230;2023-04-04T11:27:41;5.90;;;4.70;;
4450;SDS011;2238;50.180;9.230;2023-04-04T11:30:44;5.93;;;5.27;;
4450;SDS011;2238;50.180;9.230;2023-04-04T11:34:03;5.10;;;4.77;;
4450;SDS011;2238;50.180;9.230;2023-04-04T11:37:15;5.10;;;4.67;;
4450;SDS011;2238;50.180;9.230;2023-04-04T11:40:16;4.60;;;4.20;;
4450;SDS011;2238;50.180;9.230;2023-04-04T11:43:17;4.90;;;4.50;;
4450;SDS011;2238;50.180;9.230;2023-04-04T11:46:19;5.23;;;4.87;;
4450;SDS011;2238;50.180;9.230;2023-04-04T11:49:23;6.27;;;4.70;;
4450;SDS011;2238;50.180;9.230;2023-04-04T11:52:32;5.23;;;4.80;;
4450;SDS011;2238;50.180;9.230;2023-04-04T11:55:38;5.30;;;4.80;;
4450;SDS011;2238;50.180;9.230;2023-04-04T11:58:45;5.00;;;4.70;;
4450;SDS011;2238;50.180;9.230;2023-04-04T12:01:46;5.37;;;5.00;;
4450;SDS011;2238;50.180;9.230;2023-04-04T12:04:50;5.37;;;4.97;;
4450;SDS011;2238;50.180;9.230;2023-04-04T12:07:51;4.60;;;4.30;;
4450;SDS011;2238;50.180;9.230;2023-04-04T12:10:52;4.67;;;4.27;;
4450;SDS011;2238;50.180;9.230;2023-04-04T12:13:53;5.10;;;4.70;;
4450;SDS011;2238;50.180;9.230;2023-04-04T12:16:54;4.90;;;4.47;;
4450;SDS011;2238;50.180;9.230;2023-04-04T12:19:56;4.83;;;4.50;;
4450;SDS011;2238;50.180;9.230;2023-04-04T12:22:57;5.90;;;5.50;;
4450;SDS011;2238;50.180;9.230;2023-04-04T12:25:58;5.63;;;5.23;;
4450;SDS011;2238;50.180;9.230;2023-04-04T12:28:59;6.03;;;5.53;;
4450;SDS011;2238;50.180;9.230;2023-04-04T12:32:00;5.53;;;5.13;;
4450;SDS011;2238;50.180;9.230;2023-04-04T12:35:02;5.73;;;5.23;;
4450;SDS011;2238;50.180;9.230;2023-04-04T12:38:03;5.40;;;5.00;;
4450;SDS011;2238;50.180;9.230;2023-04-04T12:41:15;4.90;;;4.50;;
4450;SDS011;2238;50.180;9.230;2023-04-04T12:44:32;6.03;;;5.53;;
4450;SDS011;2238;50.180;9.230;2023-04-04T12:47:36;5.90;;;5.50;;
4450;SDS011;2238;50.180;9.230;2023-04-04T12:50:47;5.70;;;5.13;;
4450;SDS011;2238;50.180;9.230;2023-04-04T12:53:58;5.03;;;4.73;;
4450;SDS011;2238;50.180;9.230;2023-04-04T12:57:00;5.40;;;5.00;;
4450;SDS011;2238;50.180;9.230;2023-04-04T13:00:03;6.37;;;5.87;;
4450;SDS011;2238;50.180;9.230;2023-04-04T13:03:07;6.40;;;5.90;;
4450;SDS011;2238;50.180;9.230;2023-04-04T13:06:17;5.80;;;5.40;;
4450;SDS011;2238;50.180;9.230;2023-04-04T13:09:19;5.27;;;4.87;;
4450;SDS011;2238;50.180;9.230;2023-04-04T13:12:21;6.43;;;5.83;;
4450;SDS011;2238;50.180;9.230;2023-04-04T13:15:23;5.30;;;4.90;;
4450;SDS011;2238;50.180;9.230;2023-04-04T13:18:43;5.90;;;5.40;;
4450;SDS011;2238;50.180;9.230;2023-04-04T13:21:47;5.80;;;5.40;;
4450;SDS011;2238;50.180;9.230;2023-04-04T13:24:47;5.50;;;5.00;;
4450;SDS011;2238;50.180;9.230;2023-04-04T13:27:48;5.90;;;5.27;;
4450;SDS011;2238;50.180;9.230;2023-04-04T13:30:48;5.63;;;5.23;;
4450;SDS011;2238;50.180;9.230;2023-04-04T13:33:49;6.10;;;5.63;;
4450;SDS011;2238;50.180;9.230;2023-04-04T13:36:50;5.07;;;4.73;;
4450;SDS011;2238;50.180;9.230;2023-04-04T13:39:50;6.40;;;5.80;;
4450;SDS011;2238;50.180;9.230;2023-04-04T13:42:51;5.87;;;5.33;;
4450;SDS011;2238;50.180;9.230;2023-04-04T13:45:52;5.23;;;4.93;;
4450;SDS011;2238;50.180;9.230;2023-04-04T13:48:54;6.30;;;5.80;;
4450;SDS011;2238;50.180;9.230;2023-04-04T13:51:54;5.60;;;5.10;;
4450;SDS011;2238;50.180;9.230;2023-04-04T13:54:55;5.57;;;5.17;;
4450;SDS011;2238;50.180;9.230;2023-04-04T13:57:56;5.87;;;5.37;;
4450;SDS011;2238;50.180;9.230;2023-04-04T14:00:56;5.83;;;5.40;;
4450;SDS011;2238;50.180;9.230;2023-04-04T14:03:57;5.43;;;5.03;;
4450;SDS011;2238;50.180;9.230;2023-04-04T14:06:58;5.50;;;5.00;;
4450;SDS011;2238;50.180;9.230;2023-04-04T14:09:59;6.07;;;5.57;;
4450;SDS011;2238;50.180;9.230;2023-04-04T14:13:00;6.07;;;5.60;;
4450;SDS011;2238;50.180;9.230;2023-04-04T14:16:00;5.47;;;5.17;;
4450;SDS011;2238;50.180;9.230;2023-04-04T14:19:01;5.90;;;5.43;;
4450;SDS011;2238;50.180;9.230;2023-04-04T14:22:01;6.10;;;5.60;;
4450;SDS011;2238;50.180;9.230;2023-04-04T14:25:02;5.90;;;5.40;;
4450;SDS011;2238;50.180;9.230;2023-04-04T14:28:04;6.90;;;5.30;;
4450;SDS011;2238;50.180;9.230;2023-04-04T14:31:05;6.00;;;5.50;;
4450;SDS011;2238;50.180;9.230;2023-04-04T14:34:06;6.17;;;5.57;;
4450;SDS011;2238;50.180;9.230;2023-04-04T14:37:06;6.23;;;5.63;;
4450;SDS011;2238;50.180;9.230;2023-04-04T14:40:07;6.70;;;5.90;;
4450;SDS011;2238;50.180;9.230;2023-04-04T14:43:08;7.40;;;6.80;;
4450;SDS011;2238;50.180;9.230;2023-04-04T14:46:08;6.07;;;5.33;;
4450;SDS011;2238;50.180;9.230;2023-04-04T14:49:09;6.03;;;5.63;;
4450;SDS011;2238;50.180;9.230;2023-04-04T14:52:10;6.60;;;6.00;;
4450;SDS011;2238;50.180;9.230;2023-04-04T14:55:10;5.87;;;5.37;;
4450;SDS011;2238;50.180;9.230;2023-04-04T14:58:11;6.10;;;5.50;;
4450;SDS011;2238;50.180;9.230;2023-04-04T15:01:12;6.63;;;6.13;;
4450;SDS011;2238;50.180;9.230;2023-04-04T15:04:12;7.10;;;6.40;;
4450;SDS011;2238;50.180;9.230;2023-04-04T15:07:13;6.37;;;5.50;;
4450;SDS011;2238;50.180;9.230;2023-04-04T15:10:13;7.00;;;6.30;;
4450;SDS011;2238;50.180;9.230;2023-04-04T15:13:14;7.17;;;6.57;;
4450;SDS011;2238;50.180;9.230;2023-04-04T15:16:15;8.07;;;6.67;;
4450;SDS011;2238;50.180;9.230;2023-04-04T15:19:16;7.77;;;7.17;;
4450;SDS011;2238;50.180;9.230;2023-04-04T15:22:16;7.00;;;6.27;;
4450;SDS011;2238;50.180;9.230;2023-04-04T15:25:17;7.13;;;6.53;;
4450;SDS011;2238;50.180;9.230;2023-04-04T15:28:18;7.10;;;6.40;;
4450;SDS011;2238;50.180;9.230;2023-04-04T15:31:18;7.10;;;6.50;;
4450;SDS011;2238;50.180;9.230;2023-04-04T15:34:19;6.63;;;6.03;;
4450;SDS011;2238;50.180;9.230;2023-04-04T15:37:20;6.87;;;6.37;;
4450;SDS011;2238;50.180;9.230;2023-04-04T15:40:20;7.03;;;6.33;;
4450;SDS011;2238;50.180;9.230;2023-04-04T15:43:21;6.30;;;5.70;;
4450;SDS011;2238;50.180;9.230;2023-04-04T15:46:22;6.97;;;5.63;;
4450;SDS011;2238;50.180;9.230;2023-04-04T15:49:23;6.70;;;6.20;;
4450;SDS011;2238;50.180;9.230;2023-04-04T15:52:24;7.97;;;7.23;;
4450;SDS011;2238;50.180;9.230;2023-04-04T15:55:25;6.83;;;6.23;;
4450;SDS011;2238;50.180;9.230;2023-04-04T15:58:26;7.27;;;6.57;;
4450;SDS011;2238;50.180;9.230;2023-04-04T16:01:27;7.80;;;7.00;;
4450;SDS011;2238;50.180;9.230;2023-04-04T16:04:27;7.60;;;7.00;;
4450;SDS011;2238;50.180;9.230;2023-04-04T16:07:28;7.27;;;6.57;;
4450;SDS011;2238;50.180;9.230;2023-04-04T16:10:29;6.73;;;6.17;;
4450;SDS011;2238;50.180;9.230;2023-04-04T16:13:29;7.73;;;6.80;;
4450;SDS011;2238;50.180;9.230;2023-04-04T16:16:30;7.50;;;6.90;;
4450;SDS011;2238;50.180;9.230;2023-04-04T16:19:31;7.20;;;6.67;;
4450;SDS011;2238;50.180;9.230;2023-04-04T16:22:31;7.30;;;6.70;;
4450;SDS011;2238;50.180;9.230;2023-04-04T16:25:32;6.83;;;6.13;;
4450;SDS011;2238;50.180;9.230;2023-04-04T16:28:32;7.47;;;6.87;;
4450;SDS011;2238;50.180;9.230;2023-04-04T16:31:33;7.17;;;6.47;;
4450;SDS011;2238;50.180;9.230;2023-04-04T16:34:33;7.43;;;6.77;;
4450;SDS011;2238;50.180;9.230;2023-04-04T16:37:35;7.33;;;6.63;;
4450;SDS011;2238;50.180;9.230;2023-04-04T16:40:36;10.30;;;7.30;;
4450;SDS011;2238;50.180;9.230;2023-04-04T16:43:36;7.50;;;6.80;;
4450;SDS011;2238;50.180;9.230;2023-04-04T16:46:37;8.20;;;6.20;;
4450;SDS011;2238;50.180;9.230;2023-04-04T16:49:37;7.03;;;6.50;;
4450;SDS011;2238;50.180;9.230;2023-04-04T16:52:38;7.00;;;6.40;;
4450;SDS011;2238;50.180;9.230;2023-04-04T16:55:39;8.03;;;7.30;;
4450;SDS011;2238;50.180;9.230;2023-04-04T16:58:39;7.67;;;7.17;;
4450;SDS011;2238;50.180;9.230;2023-04-04T17:01:41;7.00;;;6.40;;
4450;SDS011;2238;50.180;9.230;2023-04-04T17:04:43;7.60;;;6.90;;
4450;SDS011;2238;50.180;9.230;2023-04-04T17:07:43;6.93;;;6.33;;
4450;SDS011;2238;50.180;9.230;2023-04-04T17:10:44;7.63;;;7.03;;
4450;SDS011;2238;50.180;9.230;2023-04-04T17:13:45;7.93;;;7.23;;
4450;SDS011;2238;50.180;9.230;2023-04-04T17:16:46;8.47;;;7.77;;
4450;SDS011;2238;50.180;9.230;2023-04-04T17:19:47;7.17;;;6.57;;
4450;SDS011;2238;50.180;9.230;2023-04-04T17:22:47;6.53;;;5.93;;
4450;SDS011;2238;50.180;9.230;2023-04-04T17:25:50;7.60;;;7.00;;
4450;SDS011;2238;50.180;9.230;2023-04-04T17:28:50;7.17;;;6.70;;
4450;SDS011;2238;50.180;9.230;2023-04-04T17:31:52;7.27;;;6.53;;
4450;SDS011;2238;50.180;9.230;2023-04-04T17:34:55;8.97;;;8.17;;
4450;SDS011;2238;50.180;9.230;2023-04-04T17:37:56;7.73;;;7.13;;
4450;SDS011;2238;50.180;9.230;2023-04-04T17:40:58;11.43;;;8.60;;
4450;SDS011;2238;50.180;9.230;2023-04-04T17:44:03;6.67;;;6.17;;
4450;SDS011;2238;50.180;9.230;2023-04-04T17:47:03;7.23;;;6.73;;
4450;SDS011;2238;50.180;9.230;2023-04-04T17:50:04;8.33;;;7.67;;
4450;SDS011;2238;50.180;9.230;2023-04-04T17:53:05;8.73;;;7.93;;
4450;SDS011;2238;50.180;9.230;2023-04-04T17:56:06;7.03;;;6.60;;
4450;SDS011;2238;50.180;9.230;2023-04-04T17:59:07;7.20;;;6.60;;
4450;SDS011;2238;50.180;9.230;2023-04-04T18:02:07;8.70;;;7.90;;
4450;SDS011;2238;50.180;9.230;2023-04-04T18:05:08;9.43;;;7.57;;
4450;SDS011;2238;50.180;9.230;2023-04-04T18:08:09;8.70;;;7.90;;
4450;SDS011;2238;50.180;9.230;2023-04-04T18:11:10;8.40;;;7.50;;
4450;SDS011;2238;50.180;9.230;2023-04-04T18:14:10;8.70;;;7.90;;
4450;SDS011;2238;50.180;9.230;2023-04-04T18:17:11;6.83;;;6.33;;
4450;SDS011;2238;50.180;9.230;2023-04-04T18:20:12;7.30;;;6.70;;
4450;SDS011;2238;50.180;9.230;2023-04-04T18:23:12;7.73;;;7.03;;
4450;SDS011;2238;50.180;9.230;2023-04-04T18:26:15;6.73;;;6.13;;
4450;SDS011;2238;50.180;9.230;2023-04-04T18:29:16;6.80;;;6.10;;
4450;SDS011;2238;50.180;9.230;2023-04-04T18:32:16;7.23;;;6.73;;
4450;SDS011;2238;50.180;9.230;2023-04-04T18:35:17;6.80;;;6.20;;
4450;SDS011;2238;50.180;9.230;2023-04-04T18:38:17;6.90;;;6.30;;
4450;SDS011;2238;50.180;9.230;2023-04-04T18:41:18;6.57;;;6.07;;
4450;SDS011;2238;50.180;9.230;2023-04-04T18:44:20;7.23;;;6.63;;
4450;SDS011;2238;50.180;9.230;2023-04-04T18:47:20;6.87;;;6.20;;
4450;SDS011;2238;50.180;9.230;2023-04-04T18:50:21;6.90;;;6.33;;
4450;SDS011;2238;50.180;9.230;2023-04-04T18:53:21;7.33;;;6.63;;
4450;SDS011;2238;50.180;9.230;2023-04-04T18:56:23;7.33;;;6.10;;
4450;SDS011;2238;50.180;9.230;2023-04-04T18:59:25;6.07;;;5.67;;
4450;SDS011;2238;50.180;9.230;2023-04-04T19:02:26;7.20;;;6.50;;
4450;SDS011;2238;50.180;9.230;2023-04-04T19:05:26;6.30;;;5.80;;
4450;SDS011;2238;50.180;9.230;2023-04-04T19:08:31;6.53;;;6.07;;
4450;SDS011;2238;50.180;9.230;2023-04-04T19:11:32;6.73;;;6.13;;
4450;SDS011;2238;50.180;9.230;2023-04-04T19:14:33;8.70;;;7.90;;